sensor_id;sensor_type;location;lat;lon;timestamp;temperature;humidity
74540;SHT31;66042;51.090;-115.340;2023-01-16T00:00:24;1.27;73.61
74540;SHT31;66042;51.090;-115.340;2023-01-16T00:02:51;1.27;73.53
74540;SHT31;66042;51.090;-115.340;2023-01-16T00:05:18;1.27;73.40
74540;SHT31;66042;51.090;-115.340;2023-01-16T00:07:45;1.27;73.34
74540;SHT31;66042;51.090;-115.340;2023-01-16T00:10:12;1.26;73.34
74540;SHT31;66042;51.090;-115.340;2023-01-16T00:12:41;1.25;73.33
74540;SHT31;66042;51.090;-115.340;2023-01-16T00:15:09;1.23;73.39
74540;SHT31;66042;51.090;-115.340;2023-01-16T00:17:36;1.16;73.54
74540;SHT31;66042;51.090;-115.340;2023-01-16T00:20:03;1.12;73.81
74540;SHT31;66042;51.090;-115.340;2023-01-16T00:22:30;1.09;73.72
74540;SHT31;66042;51.090;-115.340;2023-01-16T00:24:57;1.04;73.60
74540;SHT31;66042;51.090;-115.340;2023-01-16T00:27:25;1.00;73.53
74540;SHT31;66042;51.090;-115.340;2023-01-16T00:29:52;0.95;73.72
74540;SHT31;66042;51.090;-115.340;2023-01-16T00:32:19;0.94;73.84
74540;SHT31;66042;51.090;-115.340;2023-01-16T00:34:45;0.91;73.90
74540;SHT31;66042;51.090;-115.340;2023-01-16T00:37:13;0.87;74.08
74540;SHT31;66042;51.090;-115.340;2023-01-16T00:39:39;0.81;74.36
74540;SHT31;66042;51.090;-115.340;2023-01-16T00:42:07;0.77;74.62
74540;SHT31;66042;51.090;-115.340;2023-01-16T00:44:34;0.74;74.67
74540;SHT31;66042;51.090;-115.340;2023-01-16T00:47:01;0.75;74.62
74540;SHT31;66042;51.090;-115.340;2023-01-16T00:49:28;0.74;74.60
74540;SHT31;66042;51.090;-115.340;2023-01-16T00:51:55;0.74;74.60
74540;SHT31;66042;51.090;-115.340;2023-01-16T00:54:22;0.76;74.52
74540;SHT31;66042;51.090;-115.340;2023-01-16T00:56:49;0.79;74.50
74540;SHT31;66042;51.090;-115.340;2023-01-16T00:59:16;0.81;74.50
74540;SHT31;66042;51.090;-115.340;2023-01-16T01:01:43;0.80;74.30
74540;SHT31;66042;51.090;-115.340;2023-01-16T01:04:10;0.79;74.25
74540;SHT31;66042;51.090;-115.340;2023-01-16T01:06:38;0.81;74.24
74540;SHT31;66042;51.090;-115.340;2023-01-16T01:09:06;0.82;74.28
74540;SHT31;66042;51.090;-115.340;2023-01-16T01:11:33;0.81;74.31
74540;SHT31;66042;51.090;-115.340;2023-01-16T01:14:00;0.76;74.31
74540;SHT31;66042;51.090;-115.340;2023-01-16T01:16:27;0.73;74.48
74540;SHT31;66042;51.090;-115.340;2023-01-16T01:18:54;0.70;74.60
74540;SHT31;66042;51.090;-115.340;2023-01-16T01:21:22;0.66;74.58
74540;SHT31;66042;51.090;-115.340;2023-01-16T01:23:49;0.65;74.67
74540;SHT31;66042;51.090;-115.340;2023-01-16T01:26:16;0.61;74.73
74540;SHT31;66042;51.090;-115.340;2023-01-16T01:28:44;0.57;74.77
74540;SHT31;66042;51.090;-115.340;2023-01-16T01:31:12;0.54;74.79
74540;SHT31;66042;51.090;-115.340;2023-01-16T01:33:39;0.53;75.05
74540;SHT31;66042;51.090;-115.340;2023-01-16T01:36:06;0.50;75.16
74540;SHT31;66042;51.090;-115.340;2023-01-16T01:38:34;0.48;75.10
74540;SHT31;66042;51.090;-115.340;2023-01-16T01:41:02;0.47;75.06
74540;SHT31;66042;51.090;-115.340;2023-01-16T01:43:39;0.51;75.05
74540;SHT31;66042;51.090;-115.340;2023-01-16T01:46:21;0.52;75.08
74540;SHT31;66042;51.090;-115.340;2023-01-16T01:49:22;0.56;75.13
74540;SHT31;66042;51.090;-115.340;2023-01-16T01:51:57;0.59;75.08
74540;SHT31;66042;51.090;-115.340;2023-01-16T01:54:30;0.60;75.00
74540;SHT31;66042;51.090;-115.340;2023-01-16T01:57:10;0.64;74.90
74540;SHT31;66042;51.090;-115.340;2023-01-16T01:59:47;0.65;74.90
74540;SHT31;66042;51.090;-115.340;2023-01-16T02:02:30;0.64;74.98
74540;SHT31;66042;51.090;-115.340;2023-01-16T02:05:06;0.64;75.12
74540;SHT31;66042;51.090;-115.340;2023-01-16T02:07:37;0.65;75.12
74540;SHT31;66042;51.090;-115.340;2023-01-16T02:13:09;0.59;74.99
74540;SHT31;66042;51.090;-115.340;2023-01-16T02:15:36;0.56;74.95
74540;SHT31;66042;51.090;-115.340;2023-01-16T02:18:24;0.54;74.86
74540;SHT31;66042;51.090;-115.340;2023-01-16T02:27:04;0.46;75.05
74540;SHT31;66042;51.090;-115.340;2023-01-16T02:33:03;0.42;75.33
74540;SHT31;66042;51.090;-115.340;2023-01-16T02:41:32;0.33;75.47
74540;SHT31;66042;51.090;-115.340;2023-01-16T02:44:29;0.34;75.59
74540;SHT31;66042;51.090;-115.340;2023-01-16T02:53:19;0.37;76.08
74540;SHT31;66042;51.090;-115.340;2023-01-16T02:56:05;0.40;75.76
74540;SHT31;66042;51.090;-115.340;2023-01-16T02:58:45;0.44;75.54
74540;SHT31;66042;51.090;-115.340;2023-01-16T03:01:16;0.45;75.43
74540;SHT31;66042;51.090;-115.340;2023-01-16T03:06:25;0.45;75.25
74540;SHT31;66042;51.090;-115.340;2023-01-16T03:09:02;0.45;75.27
74540;SHT31;66042;51.090;-115.340;2023-01-16T03:11:32;0.42;75.25
74540;SHT31;66042;51.090;-115.340;2023-01-16T03:28:48;0.17;75.48
74540;SHT31;66042;51.090;-115.340;2023-01-16T03:36:58;0.07;75.80
74540;SHT31;66042;51.090;-115.340;2023-01-16T03:39:45;0.04;75.72
74540;SHT31;66042;51.090;-115.340;2023-01-16T03:42:23;0.04;75.76
74540;SHT31;66042;51.090;-115.340;2023-01-16T03:45:01;0.05;75.73
74540;SHT31;66042;51.090;-115.340;2023-01-16T03:47:39;0.06;75.80
74540;SHT31;66042;51.090;-115.340;2023-01-16T03:50:16;0.08;75.81
74540;SHT31;66042;51.090;-115.340;2023-01-16T03:52:48;0.14;75.71
74540;SHT31;66042;51.090;-115.340;2023-01-16T03:55:28;0.16;75.62
74540;SHT31;66042;51.090;-115.340;2023-01-16T03:58:31;0.19;75.54
74540;SHT31;66042;51.090;-115.340;2023-01-16T04:05:03;0.21;75.50
74540;SHT31;66042;51.090;-115.340;2023-01-16T04:10:11;0.22;75.30
74540;SHT31;66042;51.090;-115.340;2023-01-16T04:13:07;0.22;75.31
74540;SHT31;66042;51.090;-115.340;2023-01-16T04:15:44;0.16;75.38
74540;SHT31;66042;51.090;-115.340;2023-01-16T04:18:19;0.11;75.40
74540;SHT31;66042;51.090;-115.340;2023-01-16T04:20:56;0.11;75.40
74540;SHT31;66042;51.090;-115.340;2023-01-16T04:23:24;0.08;75.41
74540;SHT31;66042;51.090;-115.340;2023-01-16T04:25:52;0.07;75.53
74540;SHT31;66042;51.090;-115.340;2023-01-16T04:28:19;0.05;75.60
74540;SHT31;66042;51.090;-115.340;2023-01-16T04:30:45;0.04;75.59
74540;SHT31;66042;51.090;-115.340;2023-01-16T04:33:13;0.02;75.52
74540;SHT31;66042;51.090;-115.340;2023-01-16T04:35:40;-0.01;75.66
74540;SHT31;66042;51.090;-115.340;2023-01-16T04:38:07;-0.01;75.71
74540;SHT31;66042;51.090;-115.340;2023-01-16T04:40:34;0.01;75.78
74540;SHT31;66042;51.090;-115.340;2023-01-16T04:43:01;0.03;75.82
74540;SHT31;66042;51.090;-115.340;2023-01-16T04:45:28;0.06;75.85
74540;SHT31;66042;51.090;-115.340;2023-01-16T04:47:55;0.12;75.70
74540;SHT31;66042;51.090;-115.340;2023-01-16T04:50:22;0.19;75.66
74540;SHT31;66042;51.090;-115.340;2023-01-16T04:52:48;0.25;75.91
74540;SHT31;66042;51.090;-115.340;2023-01-16T04:55:15;0.32;75.94
74540;SHT31;66042;51.090;-115.340;2023-01-16T04:57:42;0.38;75.80
74540;SHT31;66042;51.090;-115.340;2023-01-16T05:00:09;0.42;75.92
74540;SHT31;66042;51.090;-115.340;2023-01-16T05:02:38;0.44;76.04
74540;SHT31;66042;51.090;-115.340;2023-01-16T05:05:05;0.44;76.09
74540;SHT31;66042;51.090;-115.340;2023-01-16T05:07:32;0.41;76.02
74540;SHT31;66042;51.090;-115.340;2023-01-16T05:09:59;0.38;76.19
74540;SHT31;66042;51.090;-115.340;2023-01-16T05:12:26;0.37;76.24
74540;SHT31;66042;51.090;-115.340;2023-01-16T05:14:53;0.38;76.21
74540;SHT31;66042;51.090;-115.340;2023-01-16T05:17:20;0.41;76.10
74540;SHT31;66042;51.090;-115.340;2023-01-16T05:19:50;0.43;75.97
74540;SHT31;66042;51.090;-115.340;2023-01-16T05:22:18;0.46;75.98
74540;SHT31;66042;51.090;-115.340;2023-01-16T05:24:45;0.48;76.11
74540;SHT31;66042;51.090;-115.340;2023-01-16T05:27:12;0.48;76.21
74540;SHT31;66042;51.090;-115.340;2023-01-16T05:29:39;0.49;76.25
74540;SHT31;66042;51.090;-115.340;2023-01-16T05:32:06;0.49;76.30
74540;SHT31;66042;51.090;-115.340;2023-01-16T05:34:33;0.47;76.51
74540;SHT31;66042;51.090;-115.340;2023-01-16T05:36:59;0.45;76.59
74540;SHT31;66042;51.090;-115.340;2023-01-16T05:39:27;0.43;76.67
74540;SHT31;66042;51.090;-115.340;2023-01-16T05:41:53;0.40;76.75
74540;SHT31;66042;51.090;-115.340;2023-01-16T05:44:20;0.35;76.98
74540;SHT31;66042;51.090;-115.340;2023-01-16T05:46:47;0.30;76.96
74540;SHT31;66042;51.090;-115.340;2023-01-16T05:49:16;0.25;77.17
74540;SHT31;66042;51.090;-115.340;2023-01-16T05:51:43;0.20;77.41
74540;SHT31;66042;51.090;-115.340;2023-01-16T05:54:11;0.21;77.53
74540;SHT31;66042;51.090;-115.340;2023-01-16T05:56:38;0.21;77.57
74540;SHT31;66042;51.090;-115.340;2023-01-16T05:59:05;0.21;77.69
74540;SHT31;66042;51.090;-115.340;2023-01-16T06:01:35;0.21;77.83
74540;SHT31;66042;51.090;-115.340;2023-01-16T06:04:03;0.23;77.81
74540;SHT31;66042;51.090;-115.340;2023-01-16T06:06:30;0.22;77.95
74540;SHT31;66042;51.090;-115.340;2023-01-16T06:08:57;0.22;78.22
74540;SHT31;66042;51.090;-115.340;2023-01-16T06:11:24;0.19;78.31
74540;SHT31;66042;51.090;-115.340;2023-01-16T06:13:51;0.15;78.37
74540;SHT31;66042;51.090;-115.340;2023-01-16T06:16:18;0.12;78.54
74540;SHT31;66042;51.090;-115.340;2023-01-16T06:18:48;0.06;78.72
74540;SHT31;66042;51.090;-115.340;2023-01-16T06:21:15;0.02;78.94
74540;SHT31;66042;51.090;-115.340;2023-01-16T06:23:42;0.01;79.00
74540;SHT31;66042;51.090;-115.340;2023-01-16T06:26:09;0.00;78.97
74540;SHT31;66042;51.090;-115.340;2023-01-16T06:28:37;-0.01;79.43
74540;SHT31;66042;51.090;-115.340;2023-01-16T06:31:04;-0.01;79.59
74540;SHT31;66042;51.090;-115.340;2023-01-16T06:33:32;-0.01;79.59
74540;SHT31;66042;51.090;-115.340;2023-01-16T06:36:00;-0.00;79.45
74540;SHT31;66042;51.090;-115.340;2023-01-16T06:38:27;-0.01;79.42
74540;SHT31;66042;51.090;-115.340;2023-01-16T06:40:54;-0.02;79.47
74540;SHT31;66042;51.090;-115.340;2023-01-16T06:43:23;-0.04;79.40
74540;SHT31;66042;51.090;-115.340;2023-01-16T06:45:53;-0.03;79.42
74540;SHT31;66042;51.090;-115.340;2023-01-16T06:48:20;-0.05;79.57
74540;SHT31;66042;51.090;-115.340;2023-01-16T06:50:48;-0.05;79.70
74540;SHT31;66042;51.090;-115.340;2023-01-16T06:53:17;-0.06;79.68
74540;SHT31;66042;51.090;-115.340;2023-01-16T06:55:44;-0.07;79.65
74540;SHT31;66042;51.090;-115.340;2023-01-16T06:58:11;-0.07;79.54
74540;SHT31;66042;51.090;-115.340;2023-01-16T07:00:38;-0.07;79.50
74540;SHT31;66042;51.090;-115.340;2023-01-16T07:03:06;-0.05;79.36
74540;SHT31;66042;51.090;-115.340;2023-01-16T07:05:34;-0.02;79.21
74540;SHT31;66042;51.090;-115.340;2023-01-16T07:08:01;-0.02;79.10
74540;SHT31;66042;51.090;-115.340;2023-01-16T07:10:28;-0.03;79.12
74540;SHT31;66042;51.090;-115.340;2023-01-16T07:12:55;-0.01;79.28
74540;SHT31;66042;51.090;-115.340;2023-01-16T07:15:22;-0.04;79.28
74540;SHT31;66042;51.090;-115.340;2023-01-16T07:18:15;-0.08;79.40
74540;SHT31;66042;51.090;-115.340;2023-01-16T07:21:02;-0.05;79.51
74540;SHT31;66042;51.090;-115.340;2023-01-16T07:23:55;-0.07;79.49
74540;SHT31;66042;51.090;-115.340;2023-01-16T07:26:30;-0.12;79.38
74540;SHT31;66042;51.090;-115.340;2023-01-16T07:28:59;-0.17;79.41
74540;SHT31;66042;51.090;-115.340;2023-01-16T07:31:28;-0.23;79.52
74540;SHT31;66042;51.090;-115.340;2023-01-16T07:33:58;-0.29;79.44
74540;SHT31;66042;51.090;-115.340;2023-01-16T07:36:25;-0.35;79.47
74540;SHT31;66042;51.090;-115.340;2023-01-16T07:38:52;-0.38;79.71
74540;SHT31;66042;51.090;-115.340;2023-01-16T07:41:19;-0.39;79.76
74540;SHT31;66042;51.090;-115.340;2023-01-16T07:43:46;-0.38;79.63
74540;SHT31;66042;51.090;-115.340;2023-01-16T07:46:13;-0.37;79.46
74540;SHT31;66042;51.090;-115.340;2023-01-16T07:48:40;-0.38;79.45
74540;SHT31;66042;51.090;-115.340;2023-01-16T07:51:07;-0.36;79.95
74540;SHT31;66042;51.090;-115.340;2023-01-16T07:53:33;-0.32;80.33
74540;SHT31;66042;51.090;-115.340;2023-01-16T07:56:01;-0.31;80.50
74540;SHT31;66042;51.090;-115.340;2023-01-16T07:58:29;-0.33;80.46
74540;SHT31;66042;51.090;-115.340;2023-01-16T08:00:57;-0.38;80.35
74540;SHT31;66042;51.090;-115.340;2023-01-16T08:03:23;-0.44;80.30
74540;SHT31;66042;51.090;-115.340;2023-01-16T08:05:55;-0.49;80.30
74540;SHT31;66042;51.090;-115.340;2023-01-16T08:08:23;-0.55;80.25
74540;SHT31;66042;51.090;-115.340;2023-01-16T08:10:54;-0.60;80.13
74540;SHT31;66042;51.090;-115.340;2023-01-16T08:13:23;-0.63;80.15
74540;SHT31;66042;51.090;-115.340;2023-01-16T08:16:05;-0.67;80.13
74540;SHT31;66042;51.090;-115.340;2023-01-16T08:18:32;-0.73;80.04
74540;SHT31;66042;51.090;-115.340;2023-01-16T08:20:59;-0.79;80.16
74540;SHT31;66042;51.090;-115.340;2023-01-16T08:23:26;-0.80;80.30
74540;SHT31;66042;51.090;-115.340;2023-01-16T08:25:56;-0.82;80.38
74540;SHT31;66042;51.090;-115.340;2023-01-16T08:28:26;-0.85;80.51
74540;SHT31;66042;51.090;-115.340;2023-01-16T08:30:53;-0.84;80.49
74540;SHT31;66042;51.090;-115.340;2023-01-16T08:33:20;-0.87;80.38
74540;SHT31;66042;51.090;-115.340;2023-01-16T08:35:48;-0.88;80.24
74540;SHT31;66042;51.090;-115.340;2023-01-16T08:38:14;-0.90;80.13
74540;SHT31;66042;51.090;-115.340;2023-01-16T08:40:41;-0.96;80.07
74540;SHT31;66042;51.090;-115.340;2023-01-16T08:43:08;-0.98;80.10
74540;SHT31;66042;51.090;-115.340;2023-01-16T08:45:54;-1.01;80.08
74540;SHT31;66042;51.090;-115.340;2023-01-16T08:48:39;-1.04;80.12
74540;SHT31;66042;51.090;-115.340;2023-01-16T08:51:25;-1.10;80.12
74540;SHT31;66042;51.090;-115.340;2023-01-16T08:53:52;-1.16;80.10
74540;SHT31;66042;51.090;-115.340;2023-01-16T08:56:22;-1.21;80.20
74540;SHT31;66042;51.090;-115.340;2023-01-16T08:58:49;-1.24;80.20
74540;SHT31;66042;51.090;-115.340;2023-01-16T09:01:16;-1.29;80.24
74540;SHT31;66042;51.090;-115.340;2023-01-16T09:03:44;-1.33;80.34
74540;SHT31;66042;51.090;-115.340;2023-01-16T09:06:11;-1.41;80.27
74540;SHT31;66042;51.090;-115.340;2023-01-16T09:08:38;-1.43;80.36
74540;SHT31;66042;51.090;-115.340;2023-01-16T09:11:06;-1.43;80.34
74540;SHT31;66042;51.090;-115.340;2023-01-16T09:13:52;-1.50;80.19
74540;SHT31;66042;51.090;-115.340;2023-01-16T09:16:22;-1.52;80.22
74540;SHT31;66042;51.090;-115.340;2023-01-16T09:18:51;-1.54;80.26
74540;SHT31;66042;51.090;-115.340;2023-01-16T09:21:19;-1.54;80.28
74540;SHT31;66042;51.090;-115.340;2023-01-16T09:23:49;-1.55;80.22
74540;SHT31;66042;51.090;-115.340;2023-01-16T09:26:17;-1.57;80.04
74540;SHT31;66042;51.090;-115.340;2023-01-16T09:28:44;-1.58;80.11
74540;SHT31;66042;51.090;-115.340;2023-01-16T09:31:11;-1.59;80.13
74540;SHT31;66042;51.090;-115.340;2023-01-16T09:33:38;-1.67;80.13
74540;SHT31;66042;51.090;-115.340;2023-01-16T09:36:06;-1.75;80.10
74540;SHT31;66042;51.090;-115.340;2023-01-16T09:38:34;-1.83;80.20
74540;SHT31;66042;51.090;-115.340;2023-01-16T09:41:01;-1.91;80.07
74540;SHT31;66042;51.090;-115.340;2023-01-16T09:43:32;-1.98;80.06
74540;SHT31;66042;51.090;-115.340;2023-01-16T09:46:18;-2.03;80.27
74540;SHT31;66042;51.090;-115.340;2023-01-16T09:52:15;-2.11;80.26
74540;SHT31;66042;51.090;-115.340;2023-01-16T09:55:06;-2.16;80.41
74540;SHT31;66042;51.090;-115.340;2023-01-16T09:58:20;-2.22;80.44
74540;SHT31;66042;51.090;-115.340;2023-01-16T10:01:03;-2.24;80.57
74540;SHT31;66042;51.090;-115.340;2023-01-16T10:03:37;-2.23;80.70
74540;SHT31;66042;51.090;-115.340;2023-01-16T10:12:01;-2.16;80.40
74540;SHT31;66042;51.090;-115.340;2023-01-16T10:23:19;-2.19;80.24
74540;SHT31;66042;51.090;-115.340;2023-01-16T10:31:58;-2.30;80.42
74540;SHT31;66042;51.090;-115.340;2023-01-16T10:37:31;-2.40;80.39
74540;SHT31;66042;51.090;-115.340;2023-01-16T10:43:02;-2.49;80.57
74540;SHT31;66042;51.090;-115.340;2023-01-16T10:46:07;-2.56;80.81
74540;SHT31;66042;51.090;-115.340;2023-01-16T10:49:03;-2.66;80.60
74540;SHT31;66042;51.090;-115.340;2023-01-16T10:51:58;-2.71;80.26
74540;SHT31;66042;51.090;-115.340;2023-01-16T10:54:29;-2.77;80.09
74540;SHT31;66042;51.090;-115.340;2023-01-16T10:56:57;-2.80;80.11
74540;SHT31;66042;51.090;-115.340;2023-01-16T10:59:29;-2.79;80.13
74540;SHT31;66042;51.090;-115.340;2023-01-16T11:02:00;-2.78;80.09
74540;SHT31;66042;51.090;-115.340;2023-01-16T11:04:44;-2.80;80.06
74540;SHT31;66042;51.090;-115.340;2023-01-16T11:07:18;-2.80;80.00
74540;SHT31;66042;51.090;-115.340;2023-01-16T11:09:47;-2.79;80.13
74540;SHT31;66042;51.090;-115.340;2023-01-16T11:12:17;-2.77;80.14
74540;SHT31;66042;51.090;-115.340;2023-01-16T11:21:15;-2.93;80.01
74540;SHT31;66042;51.090;-115.340;2023-01-16T11:24:16;-2.99;80.13
74540;SHT31;66042;51.090;-115.340;2023-01-16T11:27:07;-3.01;80.37
74540;SHT31;66042;51.090;-115.340;2023-01-16T11:29:44;-3.04;80.48
74540;SHT31;66042;51.090;-115.340;2023-01-16T11:32:14;-3.05;80.50
74540;SHT31;66042;51.090;-115.340;2023-01-16T11:34:52;-3.08;80.54
74540;SHT31;66042;51.090;-115.340;2023-01-16T11:37:22;-3.12;80.60
74540;SHT31;66042;51.090;-115.340;2023-01-16T11:39:54;-3.16;80.61
74540;SHT31;66042;51.090;-115.340;2023-01-16T11:42:28;-3.18;80.68
74540;SHT31;66042;51.090;-115.340;2023-01-16T11:45:15;-3.15;80.55
74540;SHT31;66042;51.090;-115.340;2023-01-16T11:48:07;-3.11;80.51
74540;SHT31;66042;51.090;-115.340;2023-01-16T11:50:51;-3.07;80.64
74540;SHT31;66042;51.090;-115.340;2023-01-16T11:53:21;-3.03;80.65
74540;SHT31;66042;51.090;-115.340;2023-01-16T11:55:55;-2.98;80.58
74540;SHT31;66042;51.090;-115.340;2023-01-16T12:01:36;-3.02;79.84
74540;SHT31;66042;51.090;-115.340;2023-01-16T12:04:35;-3.00;79.80
74540;SHT31;66042;51.090;-115.340;2023-01-16T12:07:35;-3.00;79.97
74540;SHT31;66042;51.090;-115.340;2023-01-16T12:13:13;-2.93;80.05
74540;SHT31;66042;51.090;-115.340;2023-01-16T12:16:07;-2.96;79.90
74540;SHT31;66042;51.090;-115.340;2023-01-16T12:19:35;-3.05;80.12
74540;SHT31;66042;51.090;-115.340;2023-01-16T12:28:19;-3.14;80.16
74540;SHT31;66042;51.090;-115.340;2023-01-16T12:37:04;-3.29;80.61
74540;SHT31;66042;51.090;-115.340;2023-01-16T12:59:54;-3.34;80.32
74540;SHT31;66042;51.090;-115.340;2023-01-16T13:05:25;-3.43;80.63
74540;SHT31;66042;51.090;-115.340;2023-01-16T13:08:04;-3.46;80.77
74540;SHT31;66042;51.090;-115.340;2023-01-16T13:10:41;-3.47;80.79
74540;SHT31;66042;51.090;-115.340;2023-01-16T13:13:36;-3.51;81.24
74540;SHT31;66042;51.090;-115.340;2023-01-16T13:19:00;-3.49;82.21
74540;SHT31;66042;51.090;-115.340;2023-01-16T13:24:31;-3.31;82.96
74540;SHT31;66042;51.090;-115.340;2023-01-16T13:27:09;-3.23;83.38
74540;SHT31;66042;51.090;-115.340;2023-01-16T13:29:46;-3.14;83.50
74540;SHT31;66042;51.090;-115.340;2023-01-16T13:32:23;-3.05;83.87
74540;SHT31;66042;51.090;-115.340;2023-01-16T13:35:10;-3.05;83.90
74540;SHT31;66042;51.090;-115.340;2023-01-16T13:44:15;-2.98;84.06
74540;SHT31;66042;51.090;-115.340;2023-01-16T13:47:02;-2.99;83.68
74540;SHT31;66042;51.090;-115.340;2023-01-16T13:49:40;-2.98;83.70
74540;SHT31;66042;51.090;-115.340;2023-01-16T13:52:15;-2.97;83.70
74540;SHT31;66042;51.090;-115.340;2023-01-16T13:54:58;-2.97;83.80
74540;SHT31;66042;51.090;-115.340;2023-01-16T13:57:31;-2.97;83.79
74540;SHT31;66042;51.090;-115.340;2023-01-16T13:59:59;-2.94;84.05
74540;SHT31;66042;51.090;-115.340;2023-01-16T14:02:42;-2.89;84.00
74540;SHT31;66042;51.090;-115.340;2023-01-16T14:06:14;-2.85;84.01
74540;SHT31;66042;51.090;-115.340;2023-01-16T14:08:26;-2.77;84.10
74540;SHT31;66042;51.090;-115.340;2023-01-16T14:11:40;-2.69;84.05
74540;SHT31;66042;51.090;-115.340;2023-01-16T14:14:45;-2.65;84.06
74540;SHT31;66042;51.090;-115.340;2023-01-16T14:23:17;-2.45;84.14
74540;SHT31;66042;51.090;-115.340;2023-01-16T14:26:17;-2.39;83.95
74540;SHT31;66042;51.090;-115.340;2023-01-16T14:29:03;-2.33;83.68
74540;SHT31;66042;51.090;-115.340;2023-01-16T14:37:44;-2.20;83.13
74540;SHT31;66042;51.090;-115.340;2023-01-16T14:40:24;-2.16;82.95
74540;SHT31;66042;51.090;-115.340;2023-01-16T14:43:25;-2.14;82.67
74540;SHT31;66042;51.090;-115.340;2023-01-16T14:55:32;-2.16;82.58
74540;SHT31;66042;51.090;-115.340;2023-01-16T14:58:16;-2.17;82.41
74540;SHT31;66042;51.090;-115.340;2023-01-16T15:00:59;-2.18;82.32
74540;SHT31;66042;51.090;-115.340;2023-01-16T15:03:47;-2.16;82.37
74540;SHT31;66042;51.090;-115.340;2023-01-16T15:06:14;-2.13;82.27
74540;SHT31;66042;51.090;-115.340;2023-01-16T15:08:42;-2.07;82.35
74540;SHT31;66042;51.090;-115.340;2023-01-16T15:11:24;-2.02;82.39
74540;SHT31;66042;51.090;-115.340;2023-01-16T15:14:12;-1.93;82.31
74540;SHT31;66042;51.090;-115.340;2023-01-16T15:16:57;-1.85;81.96
74540;SHT31;66042;51.090;-115.340;2023-01-16T15:22:52;-1.75;81.42
74540;SHT31;66042;51.090;-115.340;2023-01-16T15:31:18;-1.86;81.65
74540;SHT31;66042;51.090;-115.340;2023-01-16T15:34:05;-1.92;81.65
74540;SHT31;66042;51.090;-115.340;2023-01-16T15:36:49;-1.98;81.60
74540;SHT31;66042;51.090;-115.340;2023-01-16T15:42:21;-2.11;81.70
74540;SHT31;66042;51.090;-115.340;2023-01-16T15:45:23;-2.21;81.72
74540;SHT31;66042;51.090;-115.340;2023-01-16T15:52:01;-2.37;81.86
74540;SHT31;66042;51.090;-115.340;2023-01-16T15:54:28;-2.42;81.91
74540;SHT31;66042;51.090;-115.340;2023-01-16T15:56:55;-2.44;81.97
74540;SHT31;66042;51.090;-115.340;2023-01-16T15:59:31;-2.45;81.97
74540;SHT31;66042;51.090;-115.340;2023-01-16T16:02:34;-2.43;81.96
74540;SHT31;66042;51.090;-115.340;2023-01-16T16:05:00;-2.36;81.83
74540;SHT31;66042;51.090;-115.340;2023-01-16T16:07:28;-2.34;81.82
74540;SHT31;66042;51.090;-115.340;2023-01-16T16:10:00;-2.33;81.75
74540;SHT31;66042;51.090;-115.340;2023-01-16T16:12:28;-2.33;81.63
74540;SHT31;66042;51.090;-115.340;2023-01-16T16:18:12;-2.36;81.57
74540;SHT31;66042;51.090;-115.340;2023-01-16T16:20:44;-2.38;81.54
74540;SHT31;66042;51.090;-115.340;2023-01-16T16:33:58;-2.47;81.13
74540;SHT31;66042;51.090;-115.340;2023-01-16T16:36:55;-2.51;81.21
74540;SHT31;66042;51.090;-115.340;2023-01-16T16:42:01;-2.56;81.38
74540;SHT31;66042;51.090;-115.340;2023-01-16T16:45:09;-2.57;81.52
74540;SHT31;66042;51.090;-115.340;2023-01-16T16:48:34;-2.55;81.57
74540;SHT31;66042;51.090;-115.340;2023-01-16T16:50:50;-2.54;81.32
74540;SHT31;66042;51.090;-115.340;2023-01-16T16:53:47;-2.55;81.22
74540;SHT31;66042;51.090;-115.340;2023-01-16T16:56:51;-2.54;81.34
74540;SHT31;66042;51.090;-115.340;2023-01-16T16:59:27;-2.53;81.25
74540;SHT31;66042;51.090;-115.340;2023-01-16T17:02:02;-2.50;81.24
74540;SHT31;66042;51.090;-115.340;2023-01-16T17:04:36;-2.47;81.20
74540;SHT31;66042;51.090;-115.340;2023-01-16T17:07:04;-2.44;81.20
74540;SHT31;66042;51.090;-115.340;2023-01-16T17:09:31;-2.43;81.20
74540;SHT31;66042;51.090;-115.340;2023-01-16T17:12:00;-2.43;81.18
74540;SHT31;66042;51.090;-115.340;2023-01-16T17:14:43;-2.41;81.19
74540;SHT31;66042;51.090;-115.340;2023-01-16T17:17:11;-2.41;81.20
74540;SHT31;66042;51.090;-115.340;2023-01-16T17:19:42;-2.41;81.19
74540;SHT31;66042;51.090;-115.340;2023-01-16T17:22:11;-2.42;81.24
74540;SHT31;66042;51.090;-115.340;2023-01-16T17:24:38;-2.39;81.18
74540;SHT31;66042;51.090;-115.340;2023-01-16T17:27:05;-2.37;81.16
74540;SHT31;66042;51.090;-115.340;2023-01-16T17:29:35;-2.35;81.27
74540;SHT31;66042;51.090;-115.340;2023-01-16T17:32:24;-2.32;81.28
74540;SHT31;66042;51.090;-115.340;2023-01-16T17:34:57;-2.30;81.23
74540;SHT31;66042;51.090;-115.340;2023-01-16T17:37:24;-2.28;81.12
74540;SHT31;66042;51.090;-115.340;2023-01-16T17:39:52;-2.22;81.00
74540;SHT31;66042;51.090;-115.340;2023-01-16T17:42:19;-2.15;80.92
74540;SHT31;66042;51.090;-115.340;2023-01-16T17:44:46;-2.08;80.84
74540;SHT31;66042;51.090;-115.340;2023-01-16T17:47:31;-1.98;80.78
74540;SHT31;66042;51.090;-115.340;2023-01-16T17:50:02;-1.87;80.62
74540;SHT31;66042;51.090;-115.340;2023-01-16T17:52:47;-1.77;80.29
74540;SHT31;66042;51.090;-115.340;2023-01-16T17:55:18;-1.69;80.26
74540;SHT31;66042;51.090;-115.340;2023-01-16T17:58:03;-1.62;80.10
74540;SHT31;66042;51.090;-115.340;2023-01-16T18:00:30;-1.57;79.92
74540;SHT31;66042;51.090;-115.340;2023-01-16T18:02:57;-1.53;79.80
74540;SHT31;66042;51.090;-115.340;2023-01-16T18:05:24;-1.51;79.86
74540;SHT31;66042;51.090;-115.340;2023-01-16T18:07:51;-1.49;79.80
74540;SHT31;66042;51.090;-115.340;2023-01-16T18:10:20;-1.45;79.76
74540;SHT31;66042;51.090;-115.340;2023-01-16T18:12:48;-1.45;79.79
74540;SHT31;66042;51.090;-115.340;2023-01-16T18:15:33;-1.42;79.74
74540;SHT31;66042;51.090;-115.340;2023-01-16T18:18:19;-1.41;79.89
74540;SHT31;66042;51.090;-115.340;2023-01-16T18:20:46;-1.40;79.87
74540;SHT31;66042;51.090;-115.340;2023-01-16T18:23:33;-1.38;80.24
74540;SHT31;66042;51.090;-115.340;2023-01-16T18:26:00;-1.35;80.71
74540;SHT31;66042;51.090;-115.340;2023-01-16T18:28:27;-1.30;80.84
74540;SHT31;66042;51.090;-115.340;2023-01-16T18:30:54;-1.22;80.82
74540;SHT31;66042;51.090;-115.340;2023-01-16T18:33:21;-1.15;80.68
74540;SHT31;66042;51.090;-115.340;2023-01-16T18:35:48;-1.08;80.61
74540;SHT31;66042;51.090;-115.340;2023-01-16T18:38:15;-0.97;80.60
74540;SHT31;66042;51.090;-115.340;2023-01-16T18:41:00;-0.86;80.48
74540;SHT31;66042;51.090;-115.340;2023-01-16T18:43:45;-0.76;80.44
74540;SHT31;66042;51.090;-115.340;2023-01-16T18:46:30;-0.66;80.15
74540;SHT31;66042;51.090;-115.340;2023-01-16T18:49:16;-0.57;80.13
74540;SHT31;66042;51.090;-115.340;2023-01-16T18:52:02;-0.51;79.98